sensor_id;sensor_type;location;lat;lon;timestamp;temperature;humidity
49549;DHT22;35450;44.518;7.466;2022-12-07T00:02:43;5.40;97.80
49549;DHT22;35450;44.518;7.466;2022-12-07T00:05:47;5.30;97.90
49549;DHT22;35450;44.518;7.466;2022-12-07T00:08:51;5.30;97.40
49549;DHT22;35450;44.518;7.466;2022-12-07T00:11:55;5.30;97.30
49549;DHT22;35450;44.518;7.466;2022-12-07T00:15:00;5.30;97.20
49549;DHT22;35450;44.518;7.466;2022-12-07T00:18:04;5.40;97.10
49549;DHT22;35450;44.518;7.466;2022-12-07T00:21:18;5.40;96.60
49549;DHT22;35450;44.518;7.466;2022-12-07T00:24:22;5.30;96.40
49549;DHT22;35450;44.518;7.466;2022-12-07T00:27:27;5.30;96.50
49549;DHT22;35450;44.518;7.466;2022-12-07T00:30:31;5.10;96.50
49549;DHT22;35450;44.518;7.466;2022-12-07T00:33:35;5.30;97.10
49549;DHT22;35450;44.518;7.466;2022-12-07T00:36:39;5.20;97.60
49549;DHT22;35450;44.518;7.466;2022-12-07T00:39:45;5.30;97.50
49549;DHT22;35450;44.518;7.466;2022-12-07T00:42:50;5.20;96.70
49549;DHT22;35450;44.518;7.466;2022-12-07T00:45:54;5.20;96.00
49549;DHT22;35450;44.518;7.466;2022-12-07T00:48:58;5.20;95.80
49549;DHT22;35450;44.518;7.466;2022-12-07T00:52:02;5.20;95.70
49549;DHT22;35450;44.518;7.466;2022-12-07T00:55:06;5.30;96.60
49549;DHT22;35450;44.518;7.466;2022-12-07T00:58:11;5.20;96.70
49549;DHT22;35450;44.518;7.466;2022-12-07T01:01:15;5.20;97.00
49549;DHT22;35450;44.518;7.466;2022-12-07T01:04:19;5.20;97.40
49549;DHT22;35450;44.518;7.466;2022-12-07T01:07:22;5.20;97.50
49549;DHT22;35450;44.518;7.466;2022-12-07T01:10:27;5.20;96.90
49549;DHT22;35450;44.518;7.466;2022-12-07T01:13:32;5.20;97.10
49549;DHT22;35450;44.518;7.466;2022-12-07T01:16:36;5.10;97.60
49549;DHT22;35450;44.518;7.466;2022-12-07T01:19:42;5.00;97.60
49549;DHT22;35450;44.518;7.466;2022-12-07T01:22:46;4.90;97.60
49549;DHT22;35450;44.518;7.466;2022-12-07T01:25:55;5.00;97.10
49549;DHT22;35450;44.518;7.466;2022-12-07T01:28:59;5.00;96.60
49549;DHT22;35450;44.518;7.466;2022-12-07T01:32:04;5.00;96.40
49549;DHT22;35450;44.518;7.466;2022-12-07T01:35:08;5.00;96.10
49549;DHT22;35450;44.518;7.466;2022-12-07T01:38:12;5.00;96.00
49549;DHT22;35450;44.518;7.466;2022-12-07T01:41:16;4.90;96.90
49549;DHT22;35450;44.518;7.466;2022-12-07T01:44:27;4.90;97.60
49549;DHT22;35450;44.518;7.466;2022-12-07T01:47:33;5.00;97.40
49549;DHT22;35450;44.518;7.466;2022-12-07T01:50:38;5.00;96.90
49549;DHT22;35450;44.518;7.466;2022-12-07T01:53:45;5.00;96.60
49549;DHT22;35450;44.518;7.466;2022-12-07T01:56:53;5.00;96.70
49549;DHT22;35450;44.518;7.466;2022-12-07T01:59:59;4.90;97.40
49549;DHT22;35450;44.518;7.466;2022-12-07T02:03:27;5.00;97.70
49549;DHT22;35450;44.518;7.466;2022-12-07T02:06:35;5.00;97.60
49549;DHT22;35450;44.518;7.466;2022-12-07T02:09:39;5.00;97.80
49549;DHT22;35450;44.518;7.466;2022-12-07T02:12:45;5.00;98.40
49549;DHT22;35450;44.518;7.466;2022-12-07T02:26:19;5.00;98.10
49549;DHT22;35450;44.518;7.466;2022-12-07T02:32:53;4.90;98.40
49549;DHT22;35450;44.518;7.466;2022-12-07T02:36:08;4.90;98.60
49549;DHT22;35450;44.518;7.466;2022-12-07T02:39:24;4.90;98.50
49549;DHT22;35450;44.518;7.466;2022-12-07T02:42:42;5.00;98.10
49549;DHT22;35450;44.518;7.466;2022-12-07T02:45:48;5.00;98.00
49549;DHT22;35450;44.518;7.466;2022-12-07T02:48:54;5.00;98.10
49549;DHT22;35450;44.518;7.466;2022-12-07T02:51:58;4.90;97.80
49549;DHT22;35450;44.518;7.466;2022-12-07T02:55:03;4.80;97.30
49549;DHT22;35450;44.518;7.466;2022-12-07T02:58:37;4.80;97.90
49549;DHT22;35450;44.518;7.466;2022-12-07T03:01:54;4.80;97.40
49549;DHT22;35450;44.518;7.466;2022-12-07T03:11:56;4.80;97.90
49549;DHT22;35450;44.518;7.466;2022-12-07T03:15:07;4.70;98.10
49549;DHT22;35450;44.518;7.466;2022-12-07T03:18:17;4.80;97.50
49549;DHT22;35450;44.518;7.466;2022-12-07T03:21:38;4.80;97.40
49549;DHT22;35450;44.518;7.466;2022-12-07T03:24:53;4.80;97.60
49549;DHT22;35450;44.518;7.466;2022-12-07T03:28:05;4.80;98.50
49549;DHT22;35450;44.518;7.466;2022-12-07T03:31:22;4.80;98.80
49549;DHT22;35450;44.518;7.466;2022-12-07T03:34:39;4.70;99.00
49549;DHT22;35450;44.518;7.466;2022-12-07T03:37:53;4.70;97.90
49549;DHT22;35450;44.518;7.466;2022-12-07T03:41:01;4.70;98.00
49549;DHT22;35450;44.518;7.466;2022-12-07T03:44:09;4.70;98.30
49549;DHT22;35450;44.518;7.466;2022-12-07T03:50:44;4.60;98.00
49549;DHT22;35450;44.518;7.466;2022-12-07T03:54:09;4.60;97.00
49549;DHT22;35450;44.518;7.466;2022-12-07T03:57:15;4.70;96.00
49549;DHT22;35450;44.518;7.466;2022-12-07T04:00:21;4.70;96.30
49549;DHT22;35450;44.518;7.466;2022-12-07T04:03:26;4.60;96.70
49549;DHT22;35450;44.518;7.466;2022-12-07T04:06:30;4.70;96.90
49549;DHT22;35450;44.518;7.466;2022-12-07T04:09:35;4.70;97.10
49549;DHT22;35450;44.518;7.466;2022-12-07T04:12:39;4.80;97.10
49549;DHT22;35450;44.518;7.466;2022-12-07T04:15:43;4.80;97.10
49549;DHT22;35450;44.518;7.466;2022-12-07T04:18:47;4.70;96.90
49549;DHT22;35450;44.518;7.466;2022-12-07T04:21:52;4.70;97.30
49549;DHT22;35450;44.518;7.466;2022-12-07T04:24:56;4.80;97.40
49549;DHT22;35450;44.518;7.466;2022-12-07T04:28:00;4.70;97.50
49549;DHT22;35450;44.518;7.466;2022-12-07T04:31:04;4.70;97.30
49549;DHT22;35450;44.518;7.466;2022-12-07T04:34:08;4.80;97.30
49549;DHT22;35450;44.518;7.466;2022-12-07T04:37:12;4.80;97.20
49549;DHT22;35450;44.518;7.466;2022-12-07T04:40:16;4.70;97.40
49549;DHT22;35450;44.518;7.466;2022-12-07T04:43:20;4.80;97.50
49549;DHT22;35450;44.518;7.466;2022-12-07T04:46:25;4.80;97.10
49549;DHT22;35450;44.518;7.466;2022-12-07T04:49:30;4.80;97.50
49549;DHT22;35450;44.518;7.466;2022-12-07T04:52:34;4.70;98.30
49549;DHT22;35450;44.518;7.466;2022-12-07T04:55:38;4.70;98.50
49549;DHT22;35450;44.518;7.466;2022-12-07T04:58:43;4.70;98.60
49549;DHT22;35450;44.518;7.466;2022-12-07T05:01:47;4.70;99.00
49549;DHT22;35450;44.518;7.466;2022-12-07T05:04:51;4.70;99.00
49549;DHT22;35450;44.518;7.466;2022-12-07T05:07:55;4.70;98.90
49549;DHT22;35450;44.518;7.466;2022-12-07T05:11:00;4.70;98.50
49549;DHT22;35450;44.518;7.466;2022-12-07T05:17:09;4.70;98.20
49549;DHT22;35450;44.518;7.466;2022-12-07T05:20:14;4.70;98.10
49549;DHT22;35450;44.518;7.466;2022-12-07T05:23:19;4.40;97.90
49549;DHT22;35450;44.518;7.466;2022-12-07T05:26:24;4.30;97.50
49549;DHT22;35450;44.518;7.466;2022-12-07T05:29:29;4.40;97.90
49549;DHT22;35450;44.518;7.466;2022-12-07T05:32:32;4.50;97.60
49549;DHT22;35450;44.518;7.466;2022-12-07T05:35:36;4.40;96.60
49549;DHT22;35450;44.518;7.466;2022-12-07T05:38:41;4.40;97.40
49549;DHT22;35450;44.518;7.466;2022-12-07T05:41:46;4.30;97.10
49549;DHT22;35450;44.518;7.466;2022-12-07T05:45:09;4.40;96.90
49549;DHT22;35450;44.518;7.466;2022-12-07T05:48:13;4.30;96.90
49549;DHT22;35450;44.518;7.466;2022-12-07T05:51:17;4.30;97.80
49549;DHT22;35450;44.518;7.466;2022-12-07T05:54:22;4.30;97.00
49549;DHT22;35450;44.518;7.466;2022-12-07T05:57:25;4.30;97.00
49549;DHT22;35450;44.518;7.466;2022-12-07T06:00:30;4.30;97.00
49549;DHT22;35450;44.518;7.466;2022-12-07T06:03:33;4.40;97.20
49549;DHT22;35450;44.518;7.466;2022-12-07T06:06:37;4.50;97.40
49549;DHT22;35450;44.518;7.466;2022-12-07T06:09:41;4.50;97.30
49549;DHT22;35450;44.518;7.466;2022-12-07T06:12:45;4.40;97.50
49549;DHT22;35450;44.518;7.466;2022-12-07T06:15:49;4.50;97.50
49549;DHT22;35450;44.518;7.466;2022-12-07T06:18:53;4.60;97.50
49549;DHT22;35450;44.518;7.466;2022-12-07T06:21:57;4.40;97.90
49549;DHT22;35450;44.518;7.466;2022-12-07T06:25:02;4.40;98.40
49549;DHT22;35450;44.518;7.466;2022-12-07T06:28:07;4.40;99.00
49549;DHT22;35450;44.518;7.466;2022-12-07T06:31:11;4.40;98.50
49549;DHT22;35450;44.518;7.466;2022-12-07T06:34:17;4.40;98.80
49549;DHT22;35450;44.518;7.466;2022-12-07T06:37:21;4.40;98.80
49549;DHT22;35450;44.518;7.466;2022-12-07T06:40:25;4.40;98.60
49549;DHT22;35450;44.518;7.466;2022-12-07T06:43:29;4.40;98.60
49549;DHT22;35450;44.518;7.466;2022-12-07T06:46:34;4.40;98.30
49549;DHT22;35450;44.518;7.466;2022-12-07T06:49:39;4.50;98.50
49549;DHT22;35450;44.518;7.466;2022-12-07T06:52:43;4.40;98.80
49549;DHT22;35450;44.518;7.466;2022-12-07T06:55:47;4.40;98.70
49549;DHT22;35450;44.518;7.466;2022-12-07T06:58:51;4.50;98.30
49549;DHT22;35450;44.518;7.466;2022-12-07T07:01:55;4.50;98.30
49549;DHT22;35450;44.518;7.466;2022-12-07T07:04:59;4.50;98.20
49549;DHT22;35450;44.518;7.466;2022-12-07T07:08:03;4.60;98.00
49549;DHT22;35450;44.518;7.466;2022-12-07T07:11:08;4.50;98.40
49549;DHT22;35450;44.518;7.466;2022-12-07T07:14:12;4.50;98.50
49549;DHT22;35450;44.518;7.466;2022-12-07T07:17:20;4.40;98.60
49549;DHT22;35450;44.518;7.466;2022-12-07T07:20:24;4.50;99.10
49549;DHT22;35450;44.518;7.466;2022-12-07T07:23:28;4.50;98.90
49549;DHT22;35450;44.518;7.466;2022-12-07T07:26:32;4.60;98.80
49549;DHT22;35450;44.518;7.466;2022-12-07T07:29:36;4.60;98.70
49549;DHT22;35450;44.518;7.466;2022-12-07T07:32:40;4.50;98.20
49549;DHT22;35450;44.518;7.466;2022-12-07T07:35:44;4.40;98.60
49549;DHT22;35450;44.518;7.466;2022-12-07T07:38:48;4.30;99.40
49549;DHT22;35450;44.518;7.466;2022-12-07T07:41:52;4.40;99.40
49549;DHT22;35450;44.518;7.466;2022-12-07T07:45:02;4.50;99.30
49549;DHT22;35450;44.518;7.466;2022-12-07T07:48:07;4.60;99.30
49549;DHT22;35450;44.518;7.466;2022-12-07T07:51:12;4.50;98.50
49549;DHT22;35450;44.518;7.466;2022-12-07T07:54:16;4.60;98.90
49549;DHT22;35450;44.518;7.466;2022-12-07T07:57:20;4.60;99.20
49549;DHT22;35450;44.518;7.466;2022-12-07T08:00:24;4.60;99.30
49549;DHT22;35450;44.518;7.466;2022-12-07T08:03:28;4.60;99.60
49549;DHT22;35450;44.518;7.466;2022-12-07T08:06:32;4.70;99.90
49549;DHT22;35450;44.518;7.466;2022-12-07T08:09:36;4.70;99.70
49549;DHT22;35450;44.518;7.466;2022-12-07T08:12:42;4.70;99.60
49549;DHT22;35450;44.518;7.466;2022-12-07T08:16:07;4.80;99.70
49549;DHT22;35450;44.518;7.466;2022-12-07T08:19:12;4.90;99.60
49549;DHT22;35450;44.518;7.466;2022-12-07T08:22:16;4.90;99.90
49549;DHT22;35450;44.518;7.466;2022-12-07T08:25:20;5.00;99.90
49549;DHT22;35450;44.518;7.466;2022-12-07T08:28:26;5.10;99.90
49549;DHT22;35450;44.518;7.466;2022-12-07T08:31:30;5.10;99.90
49549;DHT22;35450;44.518;7.466;2022-12-07T08:34:35;5.20;99.80
49549;DHT22;35450;44.518;7.466;2022-12-07T08:37:39;5.20;99.70
49549;DHT22;35450;44.518;7.466;2022-12-07T08:40:43;5.30;99.80
49549;DHT22;35450;44.518;7.466;2022-12-07T08:43:47;5.40;99.90
49549;DHT22;35450;44.518;7.466;2022-12-07T08:46:57;5.40;99.90
49549;DHT22;35450;44.518;7.466;2022-12-07T08:50:04;5.40;99.90
49549;DHT22;35450;44.518;7.466;2022-12-07T08:53:10;5.50;99.90
49549;DHT22;35450;44.518;7.466;2022-12-07T08:56:14;5.40;99.90
49549;DHT22;35450;44.518;7.466;2022-12-07T08:59:18;5.50;99.90
49549;DHT22;35450;44.518;7.466;2022-12-07T09:02:23;5.50;99.90
49549;DHT22;35450;44.518;7.466;2022-12-07T09:05:27;5.60;99.90
49549;DHT22;35450;44.518;7.466;2022-12-07T09:08:38;5.60;99.90
49549;DHT22;35450;44.518;7.466;2022-12-07T09:11:43;5.60;99.90
49549;DHT22;35450;44.518;7.466;2022-12-07T09:14:49;5.60;99.90
49549;DHT22;35450;44.518;7.466;2022-12-07T09:17:53;5.60;99.90
49549;DHT22;35450;44.518;7.466;2022-12-07T09:20:57;5.70;99.90
49549;DHT22;35450;44.518;7.466;2022-12-07T09:24:01;5.70;99.80
49549;DHT22;35450;44.518;7.466;2022-12-07T09:27:05;5.70;99.90
49549;DHT22;35450;44.518;7.466;2022-12-07T09:30:10;5.70;99.90
49549;DHT22;35450;44.518;7.466;2022-12-07T09:33:14;5.80;99.90
49549;DHT22;35450;44.518;7.466;2022-12-07T09:36:18;5.80;99.90
49549;DHT22;35450;44.518;7.466;2022-12-07T09:39:22;5.70;99.90
49549;DHT22;35450;44.518;7.466;2022-12-07T09:42:28;5.60;99.90
49549;DHT22;35450;44.518;7.466;2022-12-07T09:45:35;5.60;99.90
49549;DHT22;35450;44.518;7.466;2022-12-07T09:48:41;5.70;99.90
49549;DHT22;35450;44.518;7.466;2022-12-07T09:51:47;5.80;99.90
49549;DHT22;35450;44.518;7.466;2022-12-07T09:54:51;5.90;99.90
49549;DHT22;35450;44.518;7.466;2022-12-07T09:57:57;6.00;99.90
49549;DHT22;35450;44.518;7.466;2022-12-07T10:01:11;6.00;99.90
49549;DHT22;35450;44.518;7.466;2022-12-07T10:04:24;6.10;99.90
49549;DHT22;35450;44.518;7.466;2022-12-07T10:07:29;6.10;99.90
49549;DHT22;35450;44.518;7.466;2022-12-07T10:10:34;6.10;99.90
49549;DHT22;35450;44.518;7.466;2022-12-07T10:13:51;6.10;99.90
49549;DHT22;35450;44.518;7.466;2022-12-07T10:16:57;6.20;99.90
49549;DHT22;35450;44.518;7.466;2022-12-07T10:20:24;6.20;99.90
49549;DHT22;35450;44.518;7.466;2022-12-07T10:23:29;6.30;99.90
49549;DHT22;35450;44.518;7.466;2022-12-07T10:26:37;6.30;99.90
49549;DHT22;35450;44.518;7.466;2022-12-07T10:29:50;6.40;99.90
49549;DHT22;35450;44.518;7.466;2022-12-07T10:32:55;6.40;99.90
49549;DHT22;35450;44.518;7.466;2022-12-07T10:36:00;6.40;99.90
49549;DHT22;35450;44.518;7.466;2022-12-07T10:39:15;6.50;99.90
49549;DHT22;35450;44.518;7.466;2022-12-07T10:42:21;6.50;99.90
49549;DHT22;35450;44.518;7.466;2022-12-07T10:45:25;6.50;99.90
49549;DHT22;35450;44.518;7.466;2022-12-07T11:13:25;6.70;99.90
49549;DHT22;35450;44.518;7.466;2022-12-07T11:27:02;6.70;99.90
49549;DHT22;35450;44.518;7.466;2022-12-07T11:33:25;6.80;99.90
49549;DHT22;35450;44.518;7.466;2022-12-07T11:36:39;6.90;99.90
49549;DHT22;35450;44.518;7.466;2022-12-07T11:39:46;6.80;99.90
49549;DHT22;35450;44.518;7.466;2022-12-07T11:46:17;6.90;99.90
49549;DHT22;35450;44.518;7.466;2022-12-07T11:49:32;6.90;99.90
49549;DHT22;35450;44.518;7.466;2022-12-07T11:52:54;6.90;99.90
49549;DHT22;35450;44.518;7.466;2022-12-07T11:56:17;7.00;99.90
49549;DHT22;35450;44.518;7.466;2022-12-07T11:59:32;7.00;99.60
49549;DHT22;35450;44.518;7.466;2022-12-07T12:06:00;7.00;99.00
49549;DHT22;35450;44.518;7.466;2022-12-07T12:09:27;7.00;99.10
49549;DHT22;35450;44.518;7.466;2022-12-07T12:26:05;7.20;98.50
49549;DHT22;35450;44.518;7.466;2022-12-07T12:29:26;7.20;98.80
49549;DHT22;35450;44.518;7.466;2022-12-07T12:32:42;7.30;98.90
49549;DHT22;35450;44.518;7.466;2022-12-07T12:39:24;7.20;98.70
49549;DHT22;35450;44.518;7.466;2022-12-07T12:42:44;7.20;98.60
49549;DHT22;35450;44.518;7.466;2022-12-07T12:45:48;7.30;98.40
49549;DHT22;35450;44.518;7.466;2022-12-07T12:48:52;7.30;98.50
49549;DHT22;35450;44.518;7.466;2022-12-07T12:52:00;7.30;98.70
49549;DHT22;35450;44.518;7.466;2022-12-07T13:01:37;7.40;98.50
49549;DHT22;35450;44.518;7.466;2022-12-07T13:08:05;7.30;98.70
49549;DHT22;35450;44.518;7.466;2022-12-07T13:11:37;7.30;99.00
49549;DHT22;35450;44.518;7.466;2022-12-07T13:14:56;7.30;98.70
49549;DHT22;35450;44.518;7.466;2022-12-07T13:18:04;7.40;98.60
49549;DHT22;35450;44.518;7.466;2022-12-07T13:24:13;7.40;98.50
49549;DHT22;35450;44.518;7.466;2022-12-07T13:27:18;7.40;98.20
49549;DHT22;35450;44.518;7.466;2022-12-07T13:30:22;7.50;98.10
49549;DHT22;35450;44.518;7.466;2022-12-07T13:33:29;7.50;98.20
49549;DHT22;35450;44.518;7.466;2022-12-07T13:36:38;7.50;98.10
49549;DHT22;35450;44.518;7.466;2022-12-07T13:39:47;7.50;98.00
49549;DHT22;35450;44.518;7.466;2022-12-07T13:43:04;7.40;98.90
49549;DHT22;35450;44.518;7.466;2022-12-07T13:46:10;7.50;98.40
49549;DHT22;35450;44.518;7.466;2022-12-07T13:49:24;7.60;98.40
49549;DHT22;35450;44.518;7.466;2022-12-07T13:52:30;7.60;98.40
49549;DHT22;35450;44.518;7.466;2022-12-07T13:55:34;7.60;98.20
49549;DHT22;35450;44.518;7.466;2022-12-07T13:58:38;7.60;98.30
49549;DHT22;35450;44.518;7.466;2022-12-07T14:01:45;7.60;98.10
49549;DHT22;35450;44.518;7.466;2022-12-07T14:04:51;7.60;98.20
49549;DHT22;35450;44.518;7.466;2022-12-07T14:11:07;7.60;98.60
49549;DHT22;35450;44.518;7.466;2022-12-07T14:14:28;7.60;98.40
49549;DHT22;35450;44.518;7.466;2022-12-07T14:17:32;7.70;98.40
49549;DHT22;35450;44.518;7.466;2022-12-07T14:20:38;7.70;98.30
49549;DHT22;35450;44.518;7.466;2022-12-07T14:23:44;7.60;98.60
49549;DHT22;35450;44.518;7.466;2022-12-07T14:26:49;7.40;98.80
49549;DHT22;35450;44.518;7.466;2022-12-07T14:29:53;7.50;99.00
49549;DHT22;35450;44.518;7.466;2022-12-07T14:33:03;7.60;98.80
49549;DHT22;35450;44.518;7.466;2022-12-07T14:36:12;7.60;98.60
49549;DHT22;35450;44.518;7.466;2022-12-07T14:39:16;7.60;98.70
49549;DHT22;35450;44.518;7.466;2022-12-07T14:42:22;7.60;98.70
49549;DHT22;35450;44.518;7.466;2022-12-07T14:45:28;7.50;98.80
49549;DHT22;35450;44.518;7.466;2022-12-07T14:48:32;7.50;98.90
49549;DHT22;35450;44.518;7.466;2022-12-07T14:51:39;7.50;98.90
49549;DHT22;35450;44.518;7.466;2022-12-07T14:54:44;7.70;98.90
49549;DHT22;35450;44.518;7.466;2022-12-07T14:57:48;7.70;98.60
49549;DHT22;35450;44.518;7.466;2022-12-07T15:00:52;7.60;98.60
49549;DHT22;35450;44.518;7.466;2022-12-07T15:03:56;7.60;98.70
49549;DHT22;35450;44.518;7.466;2022-12-07T15:07:18;7.60;99.00
49549;DHT22;35450;44.518;7.466;2022-12-07T15:10:28;7.70;98.60
49549;DHT22;35450;44.518;7.466;2022-12-07T15:13:34;7.70;98.50
49549;DHT22;35450;44.518;7.466;2022-12-07T15:16:56;7.70;98.50
49549;DHT22;35450;44.518;7.466;2022-12-07T15:20:00;7.70;98.80
49549;DHT22;35450;44.518;7.466;2022-12-07T15:23:04;7.50;98.60
49549;DHT22;35450;44.518;7.466;2022-12-07T15:26:10;7.50;98.70
49549;DHT22;35450;44.518;7.466;2022-12-07T15:29:14;7.30;98.70
49549;DHT22;35450;44.518;7.466;2022-12-07T15:32:19;7.30;98.70
49549;DHT22;35450;44.518;7.466;2022-12-07T15:35:23;7.30;98.70
49549;DHT22;35450;44.518;7.466;2022-12-07T15:38:27;7.30;98.70
49549;DHT22;35450;44.518;7.466;2022-12-07T15:41:32;7.10;98.60
49549;DHT22;35450;44.518;7.466;2022-12-07T15:44:36;7.00;98.70
49549;DHT22;35450;44.518;7.466;2022-12-07T15:47:59;7.00;98.60
49549;DHT22;35450;44.518;7.466;2022-12-07T15:51:05;6.90;98.70
49549;DHT22;35450;44.518;7.466;2022-12-07T15:57:24;6.90;98.50
49549;DHT22;35450;44.518;7.466;2022-12-07T16:00:28;6.80;98.50
49549;DHT22;35450;44.518;7.466;2022-12-07T16:03:32;6.70;98.40
49549;DHT22;35450;44.518;7.466;2022-12-07T16:06:36;6.70;98.60
49549;DHT22;35450;44.518;7.466;2022-12-07T16:09:42;6.60;98.60
49549;DHT22;35450;44.518;7.466;2022-12-07T16:12:46;6.50;98.70
49549;DHT22;35450;44.518;7.466;2022-12-07T16:15:50;6.40;98.80
49549;DHT22;35450;44.518;7.466;2022-12-07T16:18:55;6.40;98.90
49549;DHT22;35450;44.518;7.466;2022-12-07T16:21:59;6.40;98.90
49549;DHT22;35450;44.518;7.466;2022-12-07T16:25:03;6.40;98.90
49549;DHT22;35450;44.518;7.466;2022-12-07T16:28:07;6.40;99.00
49549;DHT22;35450;44.518;7.466;2022-12-07T16:31:14;6.40;99.00
49549;DHT22;35450;44.518;7.466;2022-12-07T16:34:18;6.30;99.00
49549;DHT22;35450;44.518;7.466;2022-12-07T16:37:22;6.30;99.00
49549;DHT22;35450;44.518;7.466;2022-12-07T16:40:26;6.20;99.00
49549;DHT22;35450;44.518;7.466;2022-12-07T16:43:30;6.20;98.90
49549;DHT22;35450;44.518;7.466;2022-12-07T16:46:35;6.20;98.70
49549;DHT22;35450;44.518;7.466;2022-12-07T16:49:39;6.20;98.70
49549;DHT22;35450;44.518;7.466;2022-12-07T16:52:43;6.20;98.80
49549;DHT22;35450;44.518;7.466;2022-12-07T16:55:47;6.20;98.50
49549;DHT22;35450;44.518;7.466;2022-12-07T16:58:52;6.20;98.50
49549;DHT22;35450;44.518;7.466;2022-12-07T17:01:55;6.20;98.60
49549;DHT22;35450;44.518;7.466;2022-12-07T17:04:59;6.10;98.60
49549;DHT22;35450;44.518;7.466;2022-12-07T17:08:04;6.00;98.90
49549;DHT22;35450;44.518;7.466;2022-12-07T17:11:20;6.00;99.00
49549;DHT22;35450;44.518;7.466;2022-12-07T17:14:25;6.00;99.20
49549;DHT22;35450;44.518;7.466;2022-12-07T17:18:04;5.90;99.10
49549;DHT22;35450;44.518;7.466;2022-12-07T17:21:08;6.00;99.30
49549;DHT22;35450;44.518;7.466;2022-12-07T17:24:15;5.90;99.20
49549;DHT22;35450;44.518;7.466;2022-12-07T17:27:19;6.00;99.20
49549;DHT22;35450;44.518;7.466;2022-12-07T17:30:23;5.90;98.90
49549;DHT22;35450;44.518;7.466;2022-12-07T17:33:27;5.80;99.20
49549;DHT22;35450;44.518;7.466;2022-12-07T17:36:31;5.70;99.40
49549;DHT22;35450;44.518;7.466;2022-12-07T17:39:35;5.80;99.40
49549;DHT22;35450;44.518;7.466;2022-12-07T17:42:39;5.80;99.30
49549;DHT22;35450;44.518;7.466;2022-12-07T17:45:43;5.60;99.10
49549;DHT22;35450;44.518;7.466;2022-12-07T17:48:47;5.80;99.10
49549;DHT22;35450;44.518;7.466;2022-12-07T17:51:52;5.70;99.20
49549;DHT22;35450;44.518;7.466;2022-12-07T17:55:15;5.70;99.20
49549;DHT22;35450;44.518;7.466;2022-12-07T17:58:20;5.70;99.40
49549;DHT22;35450;44.518;7.466;2022-12-07T18:01:24;5.70;99.30
49549;DHT22;35450;44.518;7.466;2022-12-07T18:04:28;5.70;99.30
49549;DHT22;35450;44.518;7.466;2022-12-07T18:07:32;5.70;99.50
49549;DHT22;35450;44.518;7.466;2022-12-07T18:10:36;5.60;99.50
49549;DHT22;35450;44.518;7.466;2022-12-07T18:13:41;5.60;99.30
49549;DHT22;35450;44.518;7.466;2022-12-07T18:16:44;5.60;99.70
49549;DHT22;35450;44.518;7.466;2022-12-07T18:19:48;5.70;99.40
49549;DHT22;35450;44.518;7.466;2022-12-07T18:22:53;5.60;99.20
49549;DHT22;35450;44.518;7.466;2022-12-07T18:25:57;5.50;99.30
49549;DHT22;35450;44.518;7.466;2022-12-07T18:29:01;5.60;99.40
49549;DHT22;35450;44.518;7.466;2022-12-07T18:32:05;5.50;99.50
49549;DHT22;35450;44.518;7.466;2022-12-07T18:35:09;5.60;99.10
49549;DHT22;35450;44.518;7.466;2022-12-07T18:38:14;5.60;99.00
49549;DHT22;35450;44.518;7.466;2022-12-07T18:41:19;5.40;99.00
49549;DHT22;35450;44.518;7.466;2022-12-07T18:44:23;5.40;99.10
49549;DHT22;35450;44.518;7.466;2022-12-07T18:47:27;5.50;99.20
49549;DHT22;35450;44.518;7.466;2022-12-07T18:50:31;5.50;99.00
49549;DHT22;35450;44.518;7.466;2022-12-07T18:53:36;5.40;99.20
49549;DHT22;35450;44.518;7.466;2022-12-07T18:56:40;5.40;99.50
49549;DHT22;35450;44.518;7.466;2022-12-07T18:59:43;5.40;99.50
49549;DHT22;35450;44.518;7.466;2022-12-07T19:02:52;5.40;99.30
49549;DHT22;35450;44.518;7.466;2022-12-07T19:05:56;5.40;99.10
49549;DHT22;35450;44.518;7.466;2022-12-07T19:09:01;5.40;99.10
49549;DHT22;35450;44.518;7.466;2022-12-07T19:12:05;5.30;98.90
49549;DHT22;35450;44.518;7.466;2022-12-07T19:15:11;5.30;97.90
49549;DHT22;35450;44.518;7.466;2022-12-07T19:18:15;5.20;97.50
49549;DHT22;35450;44.518;7.466;2022-12-07T19:21:18;5.20;98.00
49549;DHT22;35450;44.518;7.466;2022-12-07T19:24:22;5.20;99.60
49549;DHT22;35450;44.518;7.466;2022-12-07T19:27:27;5.20;99.70
49549;DHT22;35450;44.518;7.466;2022-12-07T19:30:31;5.10;99.80
49549;DHT22;35450;44.518;7.466;2022-12-07T19:33:35;5.10;99.50
49549;DHT22;35450;44.518;7.466;2022-12-07T19:36:39;5.10;99.50
49549;DHT22;35450;44.518;7.466;2022-12-07T19:39:43;5.20;99.60
49549;DHT22;35450;44.518;7.466;2022-12-07T19:42:49;5.20;99.40
49549;DHT22;35450;44.518;7.466;2022-12-07T19:45:53;5.20;99.40
49549;DHT22;35450;44.518;7.466;2022-12-07T19:48:57;5.20;99.40
49549;DHT22;35450;44.518;7.466;2022-12-07T19:52:05;5.30;99.40
49549;DHT22;35450;44.518;7.466;2022-12-07T19:55:10;5.20;99.20
49549;DHT22;35450;44.518;7.466;2022-12-07T19:58:13;5.10;99.40
49549;DHT22;35450;44.518;7.466;2022-12-07T20:01:18;5.10;99.30
49549;DHT22;35450;44.518;7.466;2022-12-07T20:04:27;5.10;99.30
49549;DHT22;35450;44.518;7.466;2022-12-07T20:07:32;5.10;99.30
49549;DHT22;35450;44.518;7.466;2022-12-07T20:10:40;5.10;98.90
49549;DHT22;35450;44.518;7.466;2022-12-07T20:13:44;5.10;98.60
49549;DHT22;35450;44.518;7.466;2022-12-07T20:16:48;5.10;98.30
49549;DHT22;35450;44.518;7.466;2022-12-07T20:19:52;5.20;98.30
49549;DHT22;35450;44.518;7.466;2022-12-07T20:22:56;5.10;98.20
49549;DHT22;35450;44.518;7.466;2022-12-07T20:26:05;4.90;98.40
49549;DHT22;35450;44.518;7.466;2022-12-07T20:29:11;4.90;98.50
49549;DHT22;35450;44.518;7.466;2022-12-07T20:32:17;4.80;98.30
49549;DHT22;35450;44.518;7.466;2022-12-07T20:35:21;4.90;98.20
49549;DHT22;35450;44.518;7.466;2022-12-07T20:38:26;4.90;98.20
49549;DHT22;35450;44.518;7.466;2022-12-07T20:41:30;5.00;98.00
49549;DHT22;35450;44.518;7.466;2022-12-07T20:44:52;5.00;97.70
49549;DHT22;35450;44.518;7.466;2022-12-07T20:47:57;5.00;97.80
49549;DHT22;35450;44.518;7.466;2022-12-07T20:51:04;5.00;97.70
49549;DHT22;35450;44.518;7.466;2022-12-07T20:54:08;5.00;97.60
49549;DHT22;35450;44.518;7.466;2022-12-07T20:57:13;4.90;97.60
49549;DHT22;35450;44.518;7.466;2022-12-07T21:00:17;4.90;97.60
49549;DHT22;35450;44.518;7.466;2022-12-07T21:03:21;4.90;97.70
49549;DHT22;35450;44.518;7.466;2022-12-07T21:06:25;4.90;97.70
49549;DHT22;35450;44.518;7.466;2022-12-07T21:09:29;4.90;97.70
49549;DHT22;35450;44.518;7.466;2022-12-07T21:12:33;5.00;97.70
49549;DHT22;35450;44.518;7.466;2022-12-07T21:15:39;4.90;97.50
49549;DHT22;35450;44.518;7.466;2022-12-07T21:18:43;5.00;97.50
49549;DHT22;35450;44.518;7.466;2022-12-07T21:21:50;4.90;97.70
49549;DHT22;35450;44.518;7.466;2022-12-07T21:24:55;5.00;97.60
49549;DHT22;35450;44.518;7.466;2022-12-07T21:27:59;5.00;97.70
49549;DHT22;35450;44.518;7.466;2022-12-07T21:31:03;5.00;97.60
49549;DHT22;35450;44.518;7.466;2022-12-07T21:34:07;4.90;97.50
49549;DHT22;35450;44.518;7.466;2022-12-07T21:37:11;4.90;97.50
49549;DHT22;35450;44.518;7.466;2022-12-07T21:40:15;5.00;97.70
49549;DHT22;35450;44.518;7.466;2022-12-07T21:43:19;4.90;98.10
49549;DHT22;35450;44.518;7.466;2022-12-07T21:46:25;5.00;98.20